PWSweather.com
Personal Weather Stations
Station Observations
DW1039
Liberty & Fairfield Townships, Hamilton, OH 45011

Liberty & Fairfield TownshipsHamilton, OH 45011

Lat: 39.3933, Lon: -84.477

Elevation: 780

Station Type: Davis Vantage Pro2 (Daytime Fan Aspirated)

http://www.lfweathercenter.com/

High Low Average
Temperature 85.3°F29.6°C 70.8°F21.6°C 76.6°F24.8°C
Dew Point 74.5°F23.6°C 66.4°F19.1°C 70.5°F21.4°C
Winds 18.0 mph 29.0 kmh Calm Calm 3.0 mph SSW4.8 kmh SSW
Wind Gusts 27.0 mph43.5 kmh -- 8.0 mph12.9 kmh
Humidity 86% 67% 82%
Pressure 29.99 in1015.6 mb 29.88 in1011.9 mb -
Precipitation 0.00 in0.0 mm - -
Hour Temp Dew Point Humidity Winds Wind Gusts Pressure Precip Precip Rate Daily Precip Total
12:00 AM 71.7°F22.1°C 67.0°F19.4°C 85% 1.0 mph SSE1.6 kmh SSE 2.0 mph3.2 kmh 29.96 in1014.6 mb 0.00 in0.0 mm 0.00 in/hr0.0 mm/hr 0.00 in0.0 mm
12:10 AM 71.4°F21.9°C 66.7°F19.3°C 85% Calm Calm 1.0 mph1.6 kmh 29.96 in1014.6 mb 0.00 in0.0 mm 0.00 in/hr0.0 mm/hr 0.00 in0.0 mm
12:20 AM 71.3°F21.8°C 66.6°F19.2°C 85% 1.0 mph SSE1.6 kmh SSE 1.0 mph1.6 kmh 29.97 in1014.9 mb 0.00 in0.0 mm 0.00 in/hr0.0 mm/hr 0.00 in0.0 mm
12:30 AM 71.8°F22.1°C 67.1°F19.5°C 85% Calm Calm 4.0 mph6.4 kmh 29.97 in1014.9 mb 0.00 in0.0 mm 0.00 in/hr0.0 mm/hr 0.00 in0.0 mm
12:40 AM 71.7°F22.1°C 67.0°F19.4°C 85% Calm Calm 1.0 mph1.6 kmh 29.97 in1014.9 mb 0.00 in0.0 mm 0.00 in/hr0.0 mm/hr 0.00 in0.0 mm
12:50 AM 71.8°F22.1°C 67.1°F19.5°C 85% Calm Calm 1.0 mph1.6 kmh 29.97 in1014.9 mb 0.00 in0.0 mm 0.00 in/hr0.0 mm/hr 0.00 in0.0 mm
01:00 AM 71.8°F22.1°C 67.1°F19.5°C 85% Calm Calm 4.0 mph6.4 kmh 29.97 in1014.9 mb 0.00 in0.0 mm 0.00 in/hr0.0 mm/hr 0.00 in0.0 mm
01:10 AM 71.7°F22.1°C 67.0°F19.4°C 85% Calm Calm 1.0 mph1.6 kmh 29.98 in1015.2 mb 0.00 in0.0 mm 0.00 in/hr0.0 mm/hr 0.00 in0.0 mm
01:20 AM 71.4°F21.9°C 66.7°F19.3°C 85% Calm Calm -- 29.98 in1015.2 mb 0.00 in0.0 mm 0.00 in/hr0.0 mm/hr 0.00 in0.0 mm
01:30 AM 71.0°F21.7°C 66.6°F19.2°C 86% Calm Calm -- 29.98 in1015.2 mb 0.00 in0.0 mm 0.00 in/hr0.0 mm/hr 0.00 in0.0 mm
01:40 AM 70.8°F21.6°C 66.4°F19.1°C 86% Calm Calm -- 29.98 in1015.2 mb 0.00 in0.0 mm 0.00 in/hr0.0 mm/hr 0.00 in0.0 mm
01:50 AM 70.9°F21.6°C 66.5°F19.2°C 86% Calm Calm -- 29.98 in1015.2 mb 0.00 in0.0 mm 0.00 in/hr0.0 mm/hr 0.00 in0.0 mm
02:00 AM 71.2°F21.8°C 66.8°F19.3°C 86% Calm Calm 4.0 mph6.4 kmh 29.99 in1015.6 mb 0.00 in0.0 mm 0.00 in/hr0.0 mm/hr 0.00 in0.0 mm
02:10 AM 71.4°F21.9°C 67.0°F19.4°C 86% Calm Calm 1.0 mph1.6 kmh 29.98 in1015.2 mb 0.00 in0.0 mm 0.00 in/hr0.0 mm/hr 0.00 in0.0 mm
02:20 AM 71.4°F21.9°C 67.0°F19.4°C 86% Calm Calm -- 29.98 in1015.2 mb 0.00 in0.0 mm 0.00 in/hr0.0 mm/hr 0.00 in0.0 mm
02:30 AM 71.5°F21.9°C 67.1°F19.5°C 86% Calm Calm 1.0 mph1.6 kmh 29.98 in1015.2 mb 0.00 in0.0 mm 0.00 in/hr0.0 mm/hr 0.00 in0.0 mm
02:40 AM 71.6°F22.0°C 67.2°F19.6°C 86% Calm Calm -- 29.98 in1015.2 mb 0.00 in0.0 mm 0.00 in/hr0.0 mm/hr 0.00 in0.0 mm
02:50 AM 71.7°F22.1°C 67.3°F19.6°C 86% Calm Calm 1.0 mph1.6 kmh 29.98 in1015.2 mb 0.00 in0.0 mm 0.00 in/hr0.0 mm/hr 0.00 in0.0 mm
03:00 AM 71.7°F22.1°C 67.3°F19.6°C 86% Calm Calm -- 29.97 in1014.9 mb 0.00 in0.0 mm 0.00 in/hr0.0 mm/hr 0.00 in0.0 mm
03:10 AM 71.7°F22.1°C 67.3°F19.6°C 86% Calm Calm -- 29.98 in1015.2 mb 0.00 in0.0 mm 0.00 in/hr0.0 mm/hr 0.00 in0.0 mm
03:20 AM 71.8°F22.1°C 67.4°F19.7°C 86% Calm Calm 1.0 mph1.6 kmh 29.98 in1015.2 mb 0.00 in0.0 mm 0.00 in/hr0.0 mm/hr 0.00 in0.0 mm
03:30 AM 71.9°F22.2°C 67.5°F19.7°C 86% Calm Calm 1.0 mph1.6 kmh 29.98 in1015.2 mb 0.00 in0.0 mm 0.00 in/hr0.0 mm/hr 0.00 in0.0 mm
03:40 AM 72.0°F22.2°C 67.6°F19.8°C 86% Calm Calm 4.0 mph6.4 kmh 29.98 in1015.2 mb 0.00 in0.0 mm 0.00 in/hr0.0 mm/hr 0.00 in0.0 mm
03:50 AM 72.1°F22.3°C 67.7°F19.8°C 86% Calm Calm -- 29.98 in1015.2 mb 0.00 in0.0 mm 0.00 in/hr0.0 mm/hr 0.00 in0.0 mm
04:00 AM 72.2°F22.3°C 67.8°F19.9°C 86% Calm Calm -- 29.98 in1015.2 mb 0.00 in0.0 mm 0.00 in/hr0.0 mm/hr 0.00 in0.0 mm
04:10 AM 72.2°F22.3°C 67.8°F19.9°C 86% Calm Calm -- 29.98 in1015.2 mb 0.00 in0.0 mm 0.00 in/hr0.0 mm/hr 0.00 in0.0 mm
04:20 AM 72.3°F22.4°C 67.9°F19.9°C 86% Calm Calm 4.0 mph6.4 kmh 29.98 in1015.2 mb 0.00 in0.0 mm 0.00 in/hr0.0 mm/hr 0.00 in0.0 mm
04:30 AM 72.4°F22.4°C 68.0°F20.0°C 86% Calm Calm 4.0 mph6.4 kmh 29.98 in1015.2 mb 0.00 in0.0 mm 0.00 in/hr0.0 mm/hr 0.00 in0.0 mm
04:40 AM 72.5°F22.5°C 68.1°F20.1°C 86% Calm Calm 6.0 mph9.7 kmh 29.98 in1015.2 mb 0.00 in0.0 mm 0.00 in/hr0.0 mm/hr 0.00 in0.0 mm
04:50 AM 72.6°F22.6°C 68.2°F20.1°C 86% Calm Calm 3.0 mph4.8 kmh 29.98 in1015.2 mb 0.00 in0.0 mm 0.00 in/hr0.0 mm/hr 0.00 in0.0 mm
05:00 AM 72.6°F22.6°C 68.2°F20.1°C 86% 3.0 mph SSW4.8 kmh SSW 4.0 mph6.4 kmh 29.98 in1015.2 mb 0.00 in0.0 mm 0.00 in/hr0.0 mm/hr 0.00 in0.0 mm
05:10 AM 72.6°F22.6°C 68.2°F20.1°C 86% 3.0 mph S4.8 kmh S 6.0 mph9.7 kmh 29.98 in1015.2 mb 0.00 in0.0 mm 0.00 in/hr0.0 mm/hr 0.00 in0.0 mm
05:20 AM 72.7°F22.6°C 68.3°F20.2°C 86% Calm Calm 4.0 mph6.4 kmh 29.98 in1015.2 mb 0.00 in0.0 mm 0.00 in/hr0.0 mm/hr 0.00 in0.0 mm
05:30 AM 72.8°F22.7°C 68.4°F20.2°C 86% Calm Calm 4.0 mph6.4 kmh 29.98 in1015.2 mb 0.00 in0.0 mm 0.00 in/hr0.0 mm/hr 0.00 in0.0 mm
05:40 AM 72.9°F22.7°C 68.5°F20.3°C 86% 1.0 mph SSW1.6 kmh SSW 4.0 mph6.4 kmh 29.98 in1015.2 mb 0.00 in0.0 mm 0.00 in/hr0.0 mm/hr 0.00 in0.0 mm
05:50 AM 72.8°F22.7°C 68.4°F20.2°C 86% Calm Calm 1.0 mph1.6 kmh 29.99 in1015.6 mb 0.00 in0.0 mm 0.00 in/hr0.0 mm/hr 0.00 in0.0 mm
06:00 AM 72.9°F22.7°C 68.5°F20.3°C 86% Calm Calm 5.0 mph8.0 kmh 29.98 in1015.2 mb 0.00 in0.0 mm 0.00 in/hr0.0 mm/hr 0.00 in0.0 mm
06:10 AM 72.9°F22.7°C 68.5°F20.3°C 86% Calm Calm 3.0 mph4.8 kmh 29.97 in1014.9 mb 0.00 in0.0 mm 0.00 in/hr0.0 mm/hr 0.00 in0.0 mm
06:20 AM 72.9°F22.7°C 68.5°F20.3°C 86% Calm Calm 1.0 mph1.6 kmh 29.97 in1014.9 mb 0.00 in0.0 mm 0.00 in/hr0.0 mm/hr 0.00 in0.0 mm
06:30 AM 73.0°F22.8°C 68.6°F20.3°C 86% Calm Calm 3.0 mph4.8 kmh 29.97 in1014.9 mb 0.00 in0.0 mm 0.00 in/hr0.0 mm/hr 0.00 in0.0 mm
06:40 AM 73.1°F22.8°C 68.7°F20.4°C 86% Calm Calm -- 29.98 in1015.2 mb 0.00 in0.0 mm 0.00 in/hr0.0 mm/hr 0.00 in0.0 mm
06:50 AM 73.3°F22.9°C 68.9°F20.5°C 86% Calm Calm 1.0 mph1.6 kmh 29.98 in1015.2 mb 0.00 in0.0 mm 0.00 in/hr0.0 mm/hr 0.00 in0.0 mm
07:00 AM 73.4°F23.0°C 69.0°F20.6°C 86% Calm Calm 6.0 mph9.7 kmh 29.97 in1014.9 mb 0.00 in0.0 mm 0.00 in/hr0.0 mm/hr 0.00 in0.0 mm
07:10 AM 73.6°F23.1°C 69.2°F20.7°C 86% Calm Calm 4.0 mph6.4 kmh 29.98 in1015.2 mb 0.00 in0.0 mm 0.00 in/hr0.0 mm/hr 0.00 in0.0 mm
07:20 AM 73.8°F23.2°C 69.4°F20.8°C 86% 4.0 mph S6.4 kmh S 6.0 mph9.7 kmh 29.97 in1014.9 mb 0.00 in0.0 mm 0.00 in/hr0.0 mm/hr 0.00 in0.0 mm
07:30 AM 73.9°F23.3°C 69.5°F20.8°C 86% 3.0 mph SSW4.8 kmh SSW 3.0 mph4.8 kmh 29.98 in1015.2 mb 0.00 in0.0 mm 0.00 in/hr0.0 mm/hr 0.00 in0.0 mm
07:40 AM 74.1°F23.4°C 69.7°F20.9°C 86% Calm Calm 7.0 mph11.3 kmh 29.98 in1015.2 mb 0.00 in0.0 mm 0.00 in/hr0.0 mm/hr 0.00 in0.0 mm
07:50 AM 74.3°F23.5°C 69.5°F20.8°C 85% 2.0 mph S3.2 kmh S 5.0 mph8.0 kmh 29.98 in1015.2 mb 0.00 in0.0 mm 0.00 in/hr0.0 mm/hr 0.00 in0.0 mm
08:00 AM 74.3°F23.5°C 69.5°F20.8°C 85% 3.0 mph SSE4.8 kmh SSE 6.0 mph9.7 kmh 29.97 in1014.9 mb 0.00 in0.0 mm 0.00 in/hr0.0 mm/hr 0.00 in0.0 mm
08:10 AM 74.4°F23.6°C 69.6°F20.9°C 85% 3.0 mph S4.8 kmh S 8.0 mph12.9 kmh 29.98 in1015.2 mb 0.00 in0.0 mm 0.00 in/hr0.0 mm/hr 0.00 in0.0 mm
08:20 AM 74.6°F23.7°C 69.8°F21.0°C 85% 3.0 mph S4.8 kmh S 11.0 mph17.7 kmh 29.98 in1015.2 mb 0.00 in0.0 mm 0.00 in/hr0.0 mm/hr 0.00 in0.0 mm
08:30 AM 74.9°F23.8°C 70.1°F21.2°C 85% 6.0 mph S9.7 kmh S 7.0 mph11.3 kmh 29.98 in1015.2 mb 0.00 in0.0 mm 0.00 in/hr0.0 mm/hr 0.00 in0.0 mm
08:40 AM 75.0°F23.9°C 70.2°F21.2°C 85% 5.0 mph S8.0 kmh S 6.0 mph9.7 kmh 29.97 in1014.9 mb 0.00 in0.0 mm 0.00 in/hr0.0 mm/hr 0.00 in0.0 mm
08:50 AM 75.2°F24.0°C 70.0°F21.1°C 84% 4.0 mph WSW6.4 kmh WSW 9.0 mph14.5 kmh 29.97 in1014.9 mb 0.00 in0.0 mm 0.00 in/hr0.0 mm/hr 0.00 in0.0 mm
09:00 AM 75.4°F24.1°C 70.2°F21.2°C 84% 2.0 mph SSW3.2 kmh SSW 10.0 mph16.1 kmh 29.97 in1014.9 mb 0.00 in0.0 mm 0.00 in/hr0.0 mm/hr 0.00 in0.0 mm
09:10 AM 75.6°F24.2°C 70.4°F21.3°C 84% 6.0 mph SW9.7 kmh SW 11.0 mph17.7 kmh 29.97 in1014.9 mb 0.00 in0.0 mm 0.00 in/hr0.0 mm/hr 0.00 in0.0 mm
09:20 AM 75.7°F24.3°C 70.5°F21.4°C 84% 7.0 mph SSW11.3 kmh SSW 12.0 mph19.3 kmh 29.97 in1014.9 mb 0.00 in0.0 mm 0.00 in/hr0.0 mm/hr 0.00 in0.0 mm
09:30 AM 75.8°F24.3°C 70.6°F21.4°C 84% 4.0 mph S6.4 kmh S 11.0 mph17.7 kmh 29.97 in1014.9 mb 0.00 in0.0 mm 0.00 in/hr0.0 mm/hr 0.00 in0.0 mm
09:40 AM 76.0°F24.4°C 70.8°F21.6°C 84% 6.0 mph S9.7 kmh S 11.0 mph17.7 kmh 29.97 in1014.9 mb 0.00 in0.0 mm 0.00 in/hr0.0 mm/hr 0.00 in0.0 mm
09:50 AM 76.1°F24.5°C 70.6°F21.4°C 83% 2.0 mph S3.2 kmh S 10.0 mph16.1 kmh 29.97 in1014.9 mb 0.00 in0.0 mm 0.00 in/hr0.0 mm/hr 0.00 in0.0 mm
10:00 AM 76.6°F24.8°C 71.1°F21.7°C 83% 5.0 mph S8.0 kmh S 12.0 mph19.3 kmh 29.97 in1014.9 mb 0.00 in0.0 mm 0.00 in/hr0.0 mm/hr 0.00 in0.0 mm
10:10 AM 76.6°F24.8°C 71.1°F21.7°C 83% 4.0 mph SW6.4 kmh SW 12.0 mph19.3 kmh 29.97 in1014.9 mb 0.00 in0.0 mm 0.00 in/hr0.0 mm/hr 0.00 in0.0 mm
10:20 AM 76.2°F24.6°C 70.7°F21.5°C 83% 7.0 mph WSW11.3 kmh WSW 14.0 mph22.5 kmh 29.97 in1014.9 mb 0.01 in0.3 mm 0.06 in/hr1.5 mm/hr 0.01 in0.3 mm
10:30 AM 75.7°F24.3°C 70.5°F21.4°C 84% 7.0 mph SSW11.3 kmh SSW 14.0 mph22.5 kmh 29.97 in1014.9 mb 0.01 in0.3 mm 0.00 in/hr0.0 mm/hr 0.01 in0.3 mm
10:40 AM 75.9°F24.4°C 70.7°F21.5°C 84% 9.0 mph S14.5 kmh S 12.0 mph19.3 kmh 29.97 in1014.9 mb 0.01 in0.3 mm 0.00 in/hr0.0 mm/hr 0.01 in0.3 mm
10:50 AM 76.7°F24.8°C 71.5°F21.9°C 84% 5.0 mph S8.0 kmh S 11.0 mph17.7 kmh 29.97 in1014.9 mb 0.01 in0.3 mm 0.00 in/hr0.0 mm/hr 0.01 in0.3 mm
11:00 AM 77.2°F25.1°C 71.6°F22.0°C 83% 7.0 mph WNW11.3 kmh WNW 13.0 mph20.9 kmh 29.96 in1014.6 mb 0.01 in0.3 mm 0.00 in/hr0.0 mm/hr 0.01 in0.3 mm
11:10 AM 77.7°F25.4°C 71.8°F22.1°C 82% 5.0 mph S8.0 kmh S 14.0 mph22.5 kmh 29.96 in1014.6 mb 0.01 in0.3 mm 0.00 in/hr0.0 mm/hr 0.01 in0.3 mm
11:20 AM 78.6°F25.9°C 72.3°F22.4°C 81% 4.0 mph WSW6.4 kmh WSW 13.0 mph20.9 kmh 29.95 in1014.2 mb 0.00 in0.0 mm 0.00 in/hr0.0 mm/hr 0.01 in0.3 mm
11:30 AM 79.2°F26.2°C 72.5°F22.5°C 80% 6.0 mph SSW9.7 kmh SSW 13.0 mph20.9 kmh 29.95 in1014.2 mb 0.00 in0.0 mm 0.00 in/hr0.0 mm/hr 0.01 in0.3 mm
11:40 AM 79.1°F26.2°C 72.0°F22.2°C 79% 9.0 mph SSW14.5 kmh SSW 18.0 mph29.0 kmh 29.95 in1014.2 mb 0.00 in0.0 mm 0.00 in/hr0.0 mm/hr 0.01 in0.3 mm
11:50 AM 79.6°F26.4°C 72.5°F22.5°C 79% 4.0 mph SW6.4 kmh SW 13.0 mph20.9 kmh 29.94 in1013.9 mb 0.00 in0.0 mm 0.00 in/hr0.0 mm/hr 0.01 in0.3 mm
12:00 PM 80.4°F26.9°C 73.3°F22.9°C 79% 15.0 mph S24.1 kmh S 17.0 mph27.4 kmh 29.94 in1013.9 mb 0.00 in0.0 mm 0.00 in/hr0.0 mm/hr 0.01 in0.3 mm
12:10 PM 80.9°F27.2°C 73.0°F22.8°C 77% 3.0 mph S4.8 kmh S 17.0 mph27.4 kmh 29.94 in1013.9 mb 0.00 in0.0 mm 0.00 in/hr0.0 mm/hr 0.01 in0.3 mm
12:20 PM 81.3°F27.4°C 73.0°F22.8°C 76% 9.0 mph S14.5 kmh S 13.0 mph20.9 kmh 29.94 in1013.9 mb 0.00 in0.0 mm 0.00 in/hr0.0 mm/hr 0.01 in0.3 mm
12:30 PM 81.2°F27.3°C 72.5°F22.5°C 75% 9.0 mph SW14.5 kmh SW 13.0 mph20.9 kmh 29.93 in1013.5 mb 0.00 in0.0 mm 0.00 in/hr0.0 mm/hr 0.01 in0.3 mm
12:40 PM 81.3°F27.4°C 72.2°F22.3°C 74% 15.0 mph SW24.1 kmh SW 18.0 mph29.0 kmh 29.93 in1013.5 mb 0.00 in0.0 mm 0.00 in/hr0.0 mm/hr 0.01 in0.3 mm
12:50 PM 81.1°F27.3°C 72.4°F22.4°C 75% 6.0 mph WSW9.7 kmh WSW 17.0 mph27.4 kmh 29.92 in1013.2 mb 0.00 in0.0 mm 0.00 in/hr0.0 mm/hr 0.01 in0.3 mm
01:00 PM 81.4°F27.4°C 72.3°F22.4°C 74% 7.0 mph SW11.3 kmh SW 15.0 mph24.1 kmh 29.93 in1013.5 mb 0.00 in0.0 mm 0.00 in/hr0.0 mm/hr 0.01 in0.3 mm
01:10 PM 81.5°F27.5°C 72.8°F22.7°C 75% 10.0 mph SSW16.1 kmh SSW 14.0 mph22.5 kmh 29.92 in1013.2 mb 0.00 in0.0 mm 0.00 in/hr0.0 mm/hr 0.01 in0.3 mm
01:20 PM 82.3°F27.9°C 73.6°F23.1°C 75% 11.0 mph S17.7 kmh S 13.0 mph20.9 kmh 29.91 in1012.9 mb 0.00 in0.0 mm 0.00 in/hr0.0 mm/hr 0.01 in0.3 mm
01:30 PM 82.4°F28.0°C 73.3°F22.9°C 74% 7.0 mph SSW11.3 kmh SSW 16.0 mph25.7 kmh 29.91 in1012.9 mb 0.00 in0.0 mm 0.00 in/hr0.0 mm/hr 0.01 in0.3 mm
01:40 PM 82.6°F28.1°C 73.5°F23.1°C 74% 7.0 mph SW11.3 kmh SW 14.0 mph22.5 kmh 29.91 in1012.9 mb 0.00 in0.0 mm 0.00 in/hr0.0 mm/hr 0.01 in0.3 mm
01:50 PM 82.9°F28.3°C 73.8°F23.2°C 74% 18.0 mph S29.0 kmh S 22.0 mph35.4 kmh 29.91 in1012.9 mb 0.00 in0.0 mm 0.00 in/hr0.0 mm/hr 0.01 in0.3 mm
02:00 PM 83.1°F28.4°C 73.6°F23.1°C 73% 7.0 mph S11.3 kmh S 26.0 mph41.8 kmh 29.91 in1012.9 mb 0.00 in0.0 mm 0.00 in/hr0.0 mm/hr 0.01 in0.3 mm
02:20 PM 80.5°F26.9°C 71.9°F22.2°C 75% 5.0 mph WSW8.0 kmh WSW 14.0 mph22.5 kmh 29.91 in1012.9 mb 0.00 in0.0 mm 0.00 in/hr0.0 mm/hr 0.01 in0.3 mm
02:30 PM 80.3°F26.8°C 71.7°F22.1°C 75% 3.0 mph SSW4.8 kmh SSW 16.0 mph25.7 kmh 29.91 in1012.9 mb 0.00 in0.0 mm 0.00 in/hr0.0 mm/hr 0.01 in0.3 mm
02:40 PM 80.4°F26.9°C 72.2°F22.3°C 76% 13.0 mph S20.9 kmh S 16.0 mph25.7 kmh 29.91 in1012.9 mb 0.00 in0.0 mm 0.00 in/hr0.0 mm/hr 0.01 in0.3 mm
02:50 PM 82.2°F27.9°C 73.1°F22.8°C 74% 10.0 mph S16.1 kmh S 16.0 mph25.7 kmh 29.90 in1012.5 mb 0.00 in0.0 mm 0.00 in/hr0.0 mm/hr 0.01 in0.3 mm
03:00 PM 83.0°F28.3°C 73.5°F23.1°C 73% 7.0 mph SW11.3 kmh SW 18.0 mph29.0 kmh 29.90 in1012.5 mb 0.00 in0.0 mm 0.00 in/hr0.0 mm/hr 0.01 in0.3 mm
03:10 PM 83.5°F28.6°C 73.9°F23.3°C 73% 13.0 mph SSW20.9 kmh SSW 14.0 mph22.5 kmh 29.90 in1012.5 mb 0.00 in0.0 mm 0.00 in/hr0.0 mm/hr 0.01 in0.3 mm
03:20 PM 83.6°F28.7°C 73.2°F22.9°C 71% 12.0 mph SW19.3 kmh SW 19.0 mph30.6 kmh 29.90 in1012.5 mb 0.00 in0.0 mm 0.00 in/hr0.0 mm/hr 0.01 in0.3 mm
03:30 PM 84.3°F29.1°C 73.5°F23.1°C 70% 10.0 mph SW16.1 kmh SW 15.0 mph24.1 kmh 29.90 in1012.5 mb 0.00 in0.0 mm 0.00 in/hr0.0 mm/hr 0.01 in0.3 mm
03:40 PM 84.6°F29.2°C 73.3°F22.9°C 69% 10.0 mph SW16.1 kmh SW 16.0 mph25.7 kmh 29.89 in1012.2 mb 0.00 in0.0 mm 0.00 in/hr0.0 mm/hr 0.01 in0.3 mm
03:50 PM 84.6°F29.2°C 73.3°F22.9°C 69% 11.0 mph SW17.7 kmh SW 16.0 mph25.7 kmh 29.89 in1012.2 mb 0.00 in0.0 mm 0.00 in/hr0.0 mm/hr 0.01 in0.3 mm
04:00 PM 85.3°F29.6°C 73.6°F23.1°C 68% 5.0 mph S8.0 kmh S 16.0 mph25.7 kmh 29.89 in1012.2 mb 0.00 in0.0 mm 0.00 in/hr0.0 mm/hr 0.01 in0.3 mm
04:10 PM 84.7°F29.3°C 72.5°F22.5°C 67% 4.0 mph WSW6.4 kmh WSW 17.0 mph27.4 kmh 29.89 in1012.2 mb 0.00 in0.0 mm 0.00 in/hr0.0 mm/hr 0.01 in0.3 mm
04:20 PM 83.8°F28.8°C 72.1°F22.3°C 68% Calm Calm 13.0 mph20.9 kmh 29.89 in1012.2 mb 0.00 in0.0 mm 0.00 in/hr0.0 mm/hr 0.01 in0.3 mm
04:30 PM 79.5°F26.4°C 72.4°F22.4°C 79% Calm Calm 3.0 mph4.8 kmh 29.89 in1012.2 mb 0.20 in5.1 mm 1.20 in/hr30.5 mm/hr 0.21 in5.3 mm
04:40 PM 78.0°F25.6°C 72.1°F22.3°C 82% 4.0 mph SSW6.4 kmh SSW 10.0 mph16.1 kmh 29.88 in1011.9 mb 0.20 in5.1 mm 0.00 in/hr0.0 mm/hr 0.21 in5.3 mm
04:50 PM 76.9°F24.9°C 70.3°F21.3°C 80% 10.0 mph S16.1 kmh S 27.0 mph43.5 kmh 29.90 in1012.5 mb 0.37 in9.4 mm 1.02 in/hr25.9 mm/hr 0.38 in9.7 mm
05:00 PM 75.0°F23.9°C 69.8°F21.0°C 84% Calm Calm 6.0 mph9.7 kmh 29.88 in1011.9 mb 0.41 in10.4 mm 0.05 in/hr1.3 mm/hr 0.42 in10.7 mm
05:10 PM 75.8°F24.3°C 71.0°F21.7°C 85% 4.0 mph S6.4 kmh S 6.0 mph9.7 kmh 29.88 in1011.9 mb 0.41 in10.4 mm 0.00 in/hr0.0 mm/hr 0.42 in10.7 mm
05:20 PM 76.7°F24.8°C 71.9°F22.2°C 85% 2.0 mph SSW3.2 kmh SSW 5.0 mph8.0 kmh 29.89 in1012.2 mb 0.41 in10.4 mm 0.00 in/hr0.0 mm/hr 0.42 in10.7 mm
05:30 PM 77.9°F25.5°C 72.7°F22.6°C 84% 1.0 mph S1.6 kmh S 6.0 mph9.7 kmh 29.88 in1011.9 mb 0.21 in5.3 mm 0.00 in/hr0.0 mm/hr 0.42 in10.7 mm
05:40 PM 79.8°F26.6°C 74.5°F23.6°C 84% 5.0 mph WSW8.0 kmh WSW 10.0 mph16.1 kmh 29.88 in1011.9 mb 0.21 in5.3 mm 0.00 in/hr0.0 mm/hr 0.42 in10.7 mm
05:50 PM 81.0°F27.2°C 73.9°F23.3°C 79% 4.0 mph S6.4 kmh S 12.0 mph19.3 kmh 29.88 in1011.9 mb 0.08 in2.0 mm 0.00 in/hr0.0 mm/hr 0.42 in10.7 mm
06:00 PM 81.3°F27.4°C 73.0°F22.8°C 76% 5.0 mph WSW8.0 kmh WSW 13.0 mph20.9 kmh 29.89 in1012.2 mb 0.00 in0.0 mm 0.00 in/hr0.0 mm/hr 0.42 in10.7 mm
06:10 PM 81.5°F27.5°C 72.8°F22.7°C 75% 6.0 mph SW9.7 kmh SW 13.0 mph20.9 kmh 29.89 in1012.2 mb 0.00 in0.0 mm 0.00 in/hr0.0 mm/hr 0.42 in10.7 mm
06:20 PM 81.5°F27.5°C 72.8°F22.7°C 75% 6.0 mph SW9.7 kmh SW 13.0 mph20.9 kmh 29.89 in1012.2 mb 0.00 in0.0 mm 0.00 in/hr0.0 mm/hr 0.42 in10.7 mm
06:30 PM 81.4°F27.4°C 73.1°F22.8°C 76% 6.0 mph SW9.7 kmh SW 9.0 mph14.5 kmh 29.89 in1012.2 mb 0.00 in0.0 mm 0.00 in/hr0.0 mm/hr 0.42 in10.7 mm
06:40 PM 81.4°F27.4°C 73.1°F22.8°C 76% 3.0 mph SSW4.8 kmh SSW 7.0 mph11.3 kmh 29.89 in1012.2 mb 0.00 in0.0 mm 0.00 in/hr0.0 mm/hr 0.42 in10.7 mm
06:50 PM 81.4°F27.4°C 73.1°F22.8°C 76% Calm Calm 6.0 mph9.7 kmh 29.89 in1012.2 mb 0.00 in0.0 mm 0.00 in/hr0.0 mm/hr 0.42 in10.7 mm
07:00 PM 81.3°F27.4°C 73.0°F22.8°C 76% Calm Calm 7.0 mph11.3 kmh 29.89 in1012.2 mb 0.00 in0.0 mm 0.00 in/hr0.0 mm/hr 0.42 in10.7 mm
07:10 PM 81.3°F27.4°C 73.0°F22.8°C 76% Calm Calm 4.0 mph6.4 kmh 29.89 in1012.2 mb 0.00 in0.0 mm 0.00 in/hr0.0 mm/hr 0.42 in10.7 mm
07:20 PM 81.3°F27.4°C 73.0°F22.8°C 76% Calm Calm 4.0 mph6.4 kmh 29.89 in1012.2 mb 0.00 in0.0 mm 0.00 in/hr0.0 mm/hr 0.42 in10.7 mm
07:30 PM 81.2°F27.3°C 73.3°F22.9°C 77% 3.0 mph SW4.8 kmh SW 6.0 mph9.7 kmh 29.90 in1012.5 mb 0.00 in0.0 mm 0.00 in/hr0.0 mm/hr 0.42 in10.7 mm
07:40 PM 79.0°F26.1°C 71.9°F22.2°C 79% 9.0 mph W14.5 kmh W 13.0 mph20.9 kmh 29.90 in1012.5 mb 0.13 in3.3 mm 0.78 in/hr19.8 mm/hr 0.55 in14.0 mm
07:50 PM 77.0°F25.0°C 70.7°F21.5°C 81% 2.0 mph SW3.2 kmh SW 9.0 mph14.5 kmh 29.90 in1012.5 mb 0.13 in3.3 mm 0.00 in/hr0.0 mm/hr 0.55 in14.0 mm
08:00 PM 76.4°F24.7°C 70.5°F21.4°C 82% 4.0 mph SW6.4 kmh SW 9.0 mph14.5 kmh 29.90 in1012.5 mb 0.13 in3.3 mm 0.00 in/hr0.0 mm/hr 0.55 in14.0 mm
08:10 PM 76.2°F24.6°C 70.7°F21.5°C 83% 7.0 mph SW11.3 kmh SW 9.0 mph14.5 kmh 29.90 in1012.5 mb 0.13 in3.3 mm 0.00 in/hr0.0 mm/hr 0.55 in14.0 mm
08:20 PM 76.2°F24.6°C 70.7°F21.5°C 83% 4.0 mph N6.4 kmh N 7.0 mph11.3 kmh 29.90 in1012.5 mb 0.13 in3.3 mm 0.00 in/hr0.0 mm/hr 0.55 in14.0 mm
08:30 PM 76.1°F24.5°C 70.6°F21.4°C 83% 2.0 mph N3.2 kmh N 7.0 mph11.3 kmh 29.90 in1012.5 mb 0.13 in3.3 mm 0.00 in/hr0.0 mm/hr 0.55 in14.0 mm
08:40 PM 75.8°F24.3°C 70.6°F21.4°C 84% Calm Calm 3.0 mph4.8 kmh 29.90 in1012.5 mb 0.01 in0.3 mm 0.00 in/hr0.0 mm/hr 0.55 in14.0 mm
08:50 PM 75.5°F24.2°C 70.3°F21.3°C 84% Calm Calm 4.0 mph6.4 kmh 29.90 in1012.5 mb 0.00 in0.0 mm 0.00 in/hr0.0 mm/hr 0.55 in14.0 mm
09:00 PM 75.1°F23.9°C 69.9°F21.1°C 84% Calm Calm 3.0 mph4.8 kmh 29.89 in1012.2 mb 0.00 in0.0 mm 0.00 in/hr0.0 mm/hr 0.55 in14.0 mm
09:10 PM 74.9°F23.8°C 70.1°F21.2°C 85% 3.0 mph S4.8 kmh S 5.0 mph8.0 kmh 29.89 in1012.2 mb 0.00 in0.0 mm 0.00 in/hr0.0 mm/hr 0.55 in14.0 mm
09:20 PM 75.0°F23.9°C 70.2°F21.2°C 85% Calm Calm 5.0 mph8.0 kmh 29.90 in1012.5 mb 0.00 in0.0 mm 0.00 in/hr0.0 mm/hr 0.55 in14.0 mm
09:30 PM 75.0°F23.9°C 70.2°F21.2°C 85% Calm Calm 4.0 mph6.4 kmh 29.90 in1012.5 mb 0.00 in0.0 mm 0.00 in/hr0.0 mm/hr 0.55 in14.0 mm
09:40 PM 75.2°F24.0°C 70.4°F21.3°C 85% 3.0 mph WSW4.8 kmh WSW 3.0 mph4.8 kmh 29.91 in1012.9 mb 0.00 in0.0 mm 0.00 in/hr0.0 mm/hr 0.55 in14.0 mm
10:00 PM 75.8°F24.3°C 70.6°F21.4°C 84% 4.0 mph SSW6.4 kmh SSW 5.0 mph8.0 kmh 29.92 in1013.2 mb 0.00 in0.0 mm 0.00 in/hr0.0 mm/hr 0.55 in14.0 mm
10:10 PM 75.8°F24.3°C 70.6°F21.4°C 84% Calm Calm 4.0 mph6.4 kmh 29.93 in1013.5 mb 0.00 in0.0 mm 0.00 in/hr0.0 mm/hr 0.55 in14.0 mm
10:20 PM 75.7°F24.3°C 70.5°F21.4°C 84% Calm Calm 6.0 mph9.7 kmh 29.93 in1013.5 mb 0.00 in0.0 mm 0.00 in/hr0.0 mm/hr 0.55 in14.0 mm
10:30 PM 75.7°F24.3°C 70.5°F21.4°C 84% 5.0 mph SSW8.0 kmh SSW 5.0 mph8.0 kmh 29.93 in1013.5 mb 0.00 in0.0 mm 0.00 in/hr0.0 mm/hr 0.55 in14.0 mm
10:40 PM 75.7°F24.3°C 70.2°F21.2°C 83% Calm Calm 5.0 mph8.0 kmh 29.93 in1013.5 mb 0.00 in0.0 mm 0.00 in/hr0.0 mm/hr 0.55 in14.0 mm
10:50 PM 75.6°F24.2°C 70.4°F21.3°C 84% 2.0 mph SW3.2 kmh SW 5.0 mph8.0 kmh 29.93 in1013.5 mb 0.00 in0.0 mm 0.00 in/hr0.0 mm/hr 0.55 in14.0 mm
11:00 PM 75.5°F24.2°C 70.0°F21.1°C 83% Calm Calm 6.0 mph9.7 kmh 29.93 in1013.5 mb 0.00 in0.0 mm 0.00 in/hr0.0 mm/hr 0.55 in14.0 mm
11:10 PM 75.4°F24.1°C 70.2°F21.2°C 84% Calm Calm 5.0 mph8.0 kmh 29.93 in1013.5 mb 0.00 in0.0 mm 0.00 in/hr0.0 mm/hr 0.55 in14.0 mm
11:20 PM 75.2°F24.0°C 70.0°F21.1°C 84% Calm Calm 5.0 mph8.0 kmh 29.94 in1013.9 mb 0.00 in0.0 mm 0.00 in/hr0.0 mm/hr 0.55 in14.0 mm
11:30 PM 75.1°F23.9°C 69.9°F21.1°C 84% 4.0 mph SSW6.4 kmh SSW 7.0 mph11.3 kmh 29.93 in1013.5 mb 0.00 in0.0 mm 0.00 in/hr0.0 mm/hr 0.55 in14.0 mm
11:40 PM 75.2°F24.0°C 69.7°F20.9°C 83% Calm Calm 9.0 mph14.5 kmh 29.93 in1013.5 mb 0.00 in0.0 mm 0.00 in/hr0.0 mm/hr 0.55 in14.0 mm
11:50 PM 75.2°F24.0°C 69.7°F20.9°C 83% Calm Calm 4.0 mph6.4 kmh 29.93 in1013.5 mb 0.00 in0.0 mm 0.00 in/hr0.0 mm/hr 0.55 in14.0 mm